Time;durP1;ratioP1;P1;durP2;ratioP2;P2;SDS_P1;SDS_P2;PMS_P1;PMS_P2;Temp;Humidity;BMP_temperature;BMP_pressure;BME280_temperature;BME280_humidity;BME280_pressure;Samples;Min_cycle;Max_cycle;Signal;HPM_P1;HPM_P2
2023/08/16 00:03:13;;;;;;;6.05;5.07;;;23.40;1.00;;;;;;9980876;29;20483;-81
2023/08/16 00:08:42;;;;;;;5.15;4.53;;;23.40;1.00;;;;;;9970719;29;20451;-81
2023/08/16 00:14:03;;;;;;;5.13;4.60;;;23.30;1.00;;;;;;9951910;29;20275;-81
2023/08/16 00:19:25;;;;;;;4.95;4.40;;;23.20;1.00;;;;;;9926452;30;20448;-81
2023/08/16 00:24:47;;;;;;;5.38;4.18;;;23.20;1.00;;;;;;9931013;29;20292;-81
2023/08/16 00:30:08;;;;;;;4.90;4.50;;;23.20;99.90;;;;;;9958584;29;20243;-82
2023/08/16 00:35:30;;;;;;;4.45;3.70;;;23.10;1.00;;;;;;9983715;29;20219;-81
2023/08/16 00:40:51;;;;;;;4.55;3.85;;;23.10;1.00;;;;;;9971255;29;20334;-81
2023/08/16 00:46:14;;;;;;;4.88;3.42;;;23.00;1.00;;;;;;9969924;29;20318;-82
2023/08/16 00:51:36;;;;;;;4.22;3.83;;;23.00;1.00;;;;;;9958435;29;20205;-81
2023/08/16 00:56:58;;;;;;;4.05;3.70;;;22.90;1.00;;;;;;9982461;29;20212;-81
2023/08/16 01:02:19;;;;;;;4.68;4.18;;;22.90;1.00;;;;;;9967143;29;20216;-81
2023/08/16 01:07:41;;;;;;;4.95;4.40;;;22.90;1.00;;;;;;9959577;29;20319;-81
2023/08/16 01:13:12;;;;;;;4.82;4.32;;;22.90;1.00;;;;;;9944942;29;20211;-80
2023/08/16 01:18:37;;;;;;;4.80;4.25;;;22.70;99.90;;;;;;9935182;29;20301;-81
2023/08/16 01:24:06;;;;;;;6.88;5.22;;;22.70;99.90;;;;;;9936858;29;20208;-81
2023/08/16 01:29:30;;;;;;;6.32;5.47;;;22.50;99.90;;;;;;9968277;29;20228;-81
2023/08/16 01:34:51;;;;;;;6.28;5.68;;;22.40;1.00;;;;;;9964281;29;20212;-82
2023/08/16 01:40:13;;;;;;;7.03;6.05;;;22.30;99.90;;;;;;9956218;29;20244;-81
2023/08/16 01:45:34;;;;;;;8.85;5.75;;;22.30;1.00;;;;;;9955297;29;20240;-81
2023/08/16 01:50:57;;;;;;;5.95;5.35;;;22.00;32.60;;;;;;9934229;29;20209;-81
2023/08/16 01:56:18;;;;;;;5.28;4.70;;;21.90;99.90;;;;;;9954798;29;20253;-82
2023/08/16 02:01:39;;;;;;;4.63;4.22;;;21.90;99.90;;;;;;9985726;29;20256;-81
2023/08/16 02:07:01;;;;;;;7.68;4.63;;;21.90;99.90;;;;;;9975835;29;20240;-81
2023/08/16 02:12:22;;;;;;;5.45;4.22;;;21.90;1.00;;;;;;9967660;29;20204;-81
2023/08/16 02:17:44;;;;;;;4.53;4.13;;;21.90;1.00;;;;;;9995488;29;20235;-80
2023/08/16 02:23:08;;;;;;;4.25;3.85;;;21.90;99.90;;;;;;10005183;29;20200;-82
2023/08/16 02:28:30;;;;;;;6.13;3.85;;;21.90;1.00;;;;;;9934187;29;20535;-82
2023/08/16 02:33:52;;;;;;;4.70;3.80;;;21.90;1.00;;;;;;9957217;29;20216;-82
2023/08/16 02:39:13;;;;;;;5.10;3.63;;;21.90;1.00;;;;;;9949039;29;20257;-82
2023/08/16 02:44:34;;;;;;;4.85;4.32;;;21.90;1.00;;;;;;9962263;29;20248;-81
2023/08/16 02:49:56;;;;;;;5.95;4.07;;;21.80;1.00;;;;;;9942704;29;20208;-82
2023/08/16 02:55:17;;;;;;;4.00;3.35;;;21.80;1.00;;;;;;9966708;29;20483;-82
2023/08/16 03:00:41;;;;;;;4.32;3.40;;;21.80;1.00;;;;;;9977159;29;20248;-80
2023/08/16 03:06:03;;;;;;;6.28;4.97;;;21.80;1.00;;;;;;9993383;29;20228;-82
2023/08/16 03:11:25;;;;;;;6.10;4.03;;;21.70;1.00;;;;;;9966439;29;20204;-82
2023/08/16 03:16:46;;;;;;;5.35;3.67;;;21.70;99.90;;;;;;9956484;29;20215;-81
2023/08/16 03:22:08;;;;;;;5.28;3.65;;;21.70;1.00;;;;;;9991070;29;20211;-81
2023/08/16 03:27:29;;;;;;;5.57;3.30;;;21.60;1.00;;;;;;9997641;29;20243;-82
2023/08/16 03:32:53;;;;;;;9.63;3.85;;;21.60;1.00;;;;;;9956617;29;20215;-81
2023/08/16 03:38:15;;;;;;;4.22;3.58;;;21.70;1.00;;;;;;9965230;29;20405;-83
2023/08/16 03:43:37;;;;;;;4.57;3.60;;;21.50;62.10;;;;;;9956269;29;20240;-82
2023/08/16 03:48:58;;;;;;;3.78;3.47;;;21.60;99.90;;;;;;9981958;29;20542;-82
2023/08/16 03:54:20;;;;;;;3.65;3.05;;;21.60;99.90;;;;;;9930002;29;20265;-81
2023/08/16 03:59:42;;;;;;;3.50;3.20;;;21.70;99.90;;;;;;9965342;29;20518;-82
2023/08/16 04:05:10;;;;;;;6.28;3.50;;;21.60;99.90;;;;;;10014951;29;20470;-82
2023/08/16 04:10:31;;;;;;;3.58;3.28;;;21.70;1.00;;;;;;9978941;29;20287;-82
2023/08/16 04:15:52;;;;;;;3.85;3.50;;;21.70;99.90;;;;;;9977148;29;20208;-81
2023/08/16 04:21:13;;;;;;;3.65;3.35;;;21.70;99.90;;;;;;9975822;29;20257;-81
2023/08/16 04:26:35;;;;;;;3.95;2.92;;;21.80;99.90;;;;;;9976246;29;20236;-81
2023/08/16 04:31:56;;;;;;;3.15;2.85;;;21.80;1.00;;;;;;9989809;29;20401;-81
2023/08/16 04:37:18;;;;;;;3.13;2.83;;;21.90;1.00;;;;;;9975652;29;20257;-82
2023/08/16 04:42:39;;;;;;;3.53;3.10;;;21.90;1.00;;;;;;9951613;29;20263;-81
2023/08/16 04:48:01;;;;;;;3.50;3.20;;;22.00;99.90;;;;;;9962922;29;20287;-79
2023/08/16 04:53:23;;;;;;;3.65;3.25;;;22.10;1.00;;;;;;9976225;29;20487;-80
2023/08/16 04:58:44;;;;;;;3.33;2.70;;;22.20;1.00;;;;;;9962816;29;20513;-81
2023/08/16 05:04:08;;;;;;;5.50;3.22;;;22.20;99.90;;;;;;9974207;29;20196;-81
2023/08/16 05:09:30;;;;;;;4.95;3.05;;;22.30;99.90;;;;;;9958400;29;20284;-81
2023/08/16 05:14:51;;;;;;;3.17;2.70;;;22.40;99.90;;;;;;9969854;29;20523;-81
2023/08/16 05:20:12;;;;;;;4.53;2.53;;;22.50;99.90;;;;;;9969248;29;20224;-81
2023/08/16 05:25:37;;;;;;;2.65;2.45;;;22.60;1.00;;;;;;9955267;29;20235;-81
2023/08/16 05:31:12;;;;;;;3.20;2.50;;;22.70;1.00;;;;;;9956177;29;20237;-81
2023/08/16 05:36:33;;;;;;;3.85;3.03;;;22.70;1.00;;;;;;9955421;29;20224;-81
2023/08/16 05:41:54;;;;;;;3.08;2.67;;;22.80;99.90;;;;;;9970011;29;20236;-81
2023/08/16 05:47:15;;;;;;;2.35;2.15;;;22.90;99.90;;;;;;9968310;29;20239;-80
2023/08/16 05:52:37;;;;;;;2.20;2.00;;;23.00;1.00;;;;;;9968680;29;20201;-81
2023/08/16 05:57:58;;;;;;;4.78;2.63;;;23.10;1.00;;;;;;9967980;29;20495;-84
2023/08/16 06:03:20;;;;;;;2.55;2.30;;;23.20;1.00;;;;;;9961422;29;20265;-83
2023/08/16 06:08:41;;;;;;;2.60;2.10;;;23.40;99.90;;;;;;9967952;29;20236;-80
2023/08/16 06:14:03;;;;;;;3.53;2.58;;;23.60;99.90;;;;;;9955490;29;20234;-82
2023/08/16 06:19:24;;;;;;;2.60;2.22;;;23.90;1.00;;;;;;9966971;29;20583;-81
2023/08/16 06:24:46;;;;;;;3.25;1.85;;;24.20;1.00;;;;;;9954384;29;20224;-81
2023/08/16 06:30:08;;;;;;;2.10;1.90;;;;;;;;;;9964523;29;20292;-82
2023/08/16 06:35:30;;;;;;;2.72;2.17;;;26.10;99.90;;;;;;9953658;29;20201;-82
2023/08/16 06:40:51;;;;;;;6.45;2.78;;;26.10;1.00;;;;;;9966465;29;20251;-81
2023/08/16 06:46:12;;;;;;;2.17;1.88;;;27.00;1.00;;;;;;9952741;29;20242;-83
2023/08/16 06:51:34;;;;;;;4.03;2.33;;;28.10;1.00;;;;;;9953929;29;20447;-82
2023/08/16 06:56:57;;;;;;;2.15;1.80;;;28.80;1.00;;;;;;9940257;29;20220;-82
2023/08/16 07:02:20;;;;;;;2.78;1.90;;;29.50;1.00;;;;;;9962864;29;20444;-83
2023/08/16 07:07:42;;;;;;;6.03;1.98;;;30.20;1.00;;;;;;9981982;29;20315;-83
2023/08/16 07:13:03;;;;;;;5.18;3.22;;;30.40;1.00;;;;;;9966874;29;20210;-82
2023/08/16 07:18:25;;;;;;;3.17;2.30;;;30.10;1.00;;;;;;9947938;29;20226;-82
2023/08/16 07:23:46;;;;;;;3.85;2.28;;;30.10;1.00;;;;;;9987201;29;20214;-82
2023/08/16 07:29:07;;;;;;;3.05;2.00;;;30.60;1.00;;;;;;9965857;29;20240;-82
2023/08/16 07:34:29;;;;;;;3.28;2.13;;;31.40;1.00;;;;;;9950402;29;20213;-82
2023/08/16 07:39:51;;;;;;;4.60;2.50;;;31.80;1.00;;;;;;9963121;29;20227;-83
2023/08/16 07:45:12;;;;;;;6.10;2.10;;;32.30;1.00;;;;;;9961847;29;20293;-82
2023/08/16 07:50:33;;;;;;;2.75;2.17;;;32.30;1.00;;;;;;9972172;29;20220;-85
2023/08/16 07:55:55;;;;;;;2.85;2.30;;;32.80;1.00;;;;;;9946694;29;20575;-81
2023/08/16 08:01:17;;;;;;;2.83;2.20;;;32.70;1.00;;;;;;9981668;29;20219;-81
2023/08/16 08:06:38;;;;;;;5.18;2.35;;;32.70;1.00;;;;;;9986041;29;20247;-81
2023/08/16 08:12:00;;;;;;;2.05;1.83;;;32.80;1.00;;;;;;9959351;29;20216;-83
2023/08/16 08:17:21;;;;;;;3.88;2.10;;;33.30;1.00;;;;;;9960072;29;20208;-81
2023/08/16 08:22:42;;;;;;;2.92;2.15;;;33.70;99.90;;;;;;9959267;29;20214;-80
2023/08/16 08:28:04;;;;;;;4.13;2.03;;;34.40;99.90;;;;;;9969571;29;20289;-81
2023/08/16 08:33:26;;;;;;;2.13;1.77;;;34.80;99.90;;;;;;9947900;29;20438;-84
2023/08/16 08:38:49;;;;;;;3.40;1.75;;;35.20;99.90;;;;;;9944695;29;20239;-81
2023/08/16 08:44:10;;;;;;;1.98;1.77;;;35.50;99.90;;;;;;9957586;29;20252;-84
2023/08/16 08:49:36;;;;;;;2.03;1.80;;;35.60;99.90;;;;;;9953718;29;20322;-80
2023/08/16 08:54:58;;;;;;;8.02;2.15;;;36.00;99.90;;;;;;9965909;29;20220;-86
2023/08/16 09:00:21;;;;;;;2.10;1.88;;;36.00;99.90;;;;;;9972154;29;20203;-82
2023/08/16 09:05:45;;;;;;;2.67;1.77;;;36.10;99.90;;;;;;9984640;29;20247;-85
2023/08/16 09:11:07;;;;;;;3.85;2.40;;;36.00;99.90;;;;;;10002985;29;20208;-88
2023/08/16 09:16:28;;;;;;;2.28;2.08;;;36.50;99.90;;;;;;9984635;29;20223;-81
2023/08/16 09:21:51;;;;;;;2.92;1.95;;;36.80;99.90;;;;;;9986743;29;20212;-81
2023/08/16 09:27:13;;;;;;;3.75;2.00;;;37.10;99.90;;;;;;9952207;29;20518;-81
2023/08/16 09:32:35;;;;;;;2.65;2.20;;;;;;;;;;9953616;29;20224;-80
2023/08/16 09:37:57;;;;;;;2.88;2.20;;;37.40;99.90;;;;;;9974298;29;20534;-78
2023/08/16 09:43:20;;;;;;;4.93;2.47;;;37.40;99.90;;;;;;9961177;29;20248;-81
2023/08/16 09:48:41;;;;;;;5.03;2.20;;;37.50;99.90;;;;;;9939348;29;20236;-87
2023/08/16 09:54:13;;;;;;;5.60;3.17;;;37.10;99.90;;;;;;9927336;29;20550;-84
2023/08/16 09:59:35;;;;;;;2.90;1.73;;;36.60;99.90;;;;;;9942908;29;20202;-79
2023/08/16 10:04:57;;;;;;;3.65;2.60;;;36.40;99.90;;;;;;9998085;29;20229;-82
2023/08/16 10:10:19;;;;;;;2.92;2.00;;;36.60;99.90;;;;;;9963695;29;20213;-85
2023/08/16 10:15:44;;;;;;;9.38;1.98;;;37.10;99.90;;;;;;9951055;29;20224;-80
2023/08/16 10:21:08;;;;;;;2.30;2.10;;;37.40;99.90;;;;;;9948780;29;20569;-82
2023/08/16 10:26:33;;;;;;;3.78;2.20;;;37.80;99.90;;;;;;9950288;29;20453;-81
2023/08/16 10:31:56;;;;;;;7.03;3.92;;;37.80;99.90;;;;;;9949425;29;20208;-84
2023/08/16 10:37:19;;;;;;;5.68;3.42;;;37.60;99.90;;;;;;9961285;29;20436;-79
2023/08/16 10:42:55;;;;;;;10.32;5.22;;;37.40;99.90;;;;;;9970957;29;20244;-80
2023/08/16 10:48:20;;;;;;;5.35;3.53;;;37.30;99.90;;;;;;9961479;29;21710;-82
2023/08/16 10:53:42;;;;;;;5.05;3.42;;;37.20;99.90;;;;;;9961621;29;20204;-80
2023/08/16 10:59:07;;;;;;;7.65;2.75;;;37.40;99.90;;;;;;9960631;29;20231;-79
2023/08/16 11:04:36;;;;;;;2.95;2.35;;;37.50;99.90;;;;;;9976817;29;20212;-81
2023/08/16 11:10:01;;;;;;;3.92;2.63;;;37.70;99.90;;;;;;9933917;29;20273;-78
2023/08/16 11:15:23;;;;;;;5.13;2.50;;;38.20;99.90;;;;;;9960771;29;20216;-79
2023/08/16 11:20:44;;;;;;;3.17;2.88;;;38.20;99.90;;;;;;9956058;29;20502;-83
2023/08/16 11:26:08;;;;;;;6.53;3.42;;;38.10;99.90;;;;;;9962440;29;20504;-80
2023/08/16 11:31:29;;;;;;;3.05;2.55;;;37.90;99.90;;;;;;9960785;29;20204;-78
2023/08/16 11:36:50;;;;;;;4.55;2.30;;;37.80;99.90;;;;;;9966778;29;20510;-83
2023/08/16 11:42:12;;;;;;;4.38;3.35;;;37.70;99.90;;;;;;9952716;29;20228;-80
2023/08/16 11:47:34;;;;;;;9.18;3.53;;;37.50;99.90;;;;;;9975096;29;20243;-79
2023/08/16 11:53:00;;;;;;;3.58;2.50;;;36.60;99.90;;;;;;9955328;29;20212;-80
2023/08/16 11:58:21;;;;;;;7.53;3.03;;;36.10;99.90;;;;;;9980664;29;20208;-83
2023/08/16 12:03:44;;;;;;;6.22;2.58;;;35.90;99.90;;;;;;9986669;29;20250;-79
2023/08/16 12:09:06;;;;;;;6.07;2.45;;;35.90;99.90;;;;;;9957165;29;20239;-80
2023/08/16 12:14:27;;;;;;;6.40;2.95;;;35.30;99.90;;;;;;9966270;29;20204;-83
2023/08/16 12:19:48;;;;;;;4.07;2.85;;;34.60;1.00;;;;;;9928435;29;20566;-79
2023/08/16 12:25:10;;;;;;;6.30;2.95;;;;;;;;;;9950888;29;20238;-78
2023/08/16 12:30:31;;;;;;;12.10;4.60;;;33.20;99.90;;;;;;9943012;29;20215;-78
2023/08/16 12:35:53;;;;;;;7.50;3.95;;;32.40;99.90;;;;;;9953860;29;20239;-79
2023/08/16 12:41:14;;;;;;;4.30;2.35;;;32.00;99.90;;;;;;9937700;29;20251;-82
2023/08/16 12:46:35;;;;;;;8.55;2.80;;;;;;;;;;9979663;29;20254;-79
2023/08/16 12:51:56;;;;;;;20.55;3.42;;;32.30;99.90;;;;;;10004898;29;20506;-78
2023/08/16 12:57:18;;;;;;;8.13;2.67;;;32.30;99.90;;;;;;9985554;29;20212;-80
2023/08/16 13:02:45;;;;;;;4.68;2.33;;;32.20;99.90;;;;;;9964077;29;20221;-79
2023/08/16 13:08:16;;;;;;;7.18;3.42;;;31.70;99.90;;;;;;9978287;29;20235;-81
2023/08/16 13:13:47;;;;;;;2.60;2.08;;;31.70;99.90;;;;;;9982764;29;20256;-79
2023/08/16 13:19:09;;;;;;;4.47;2.55;;;31.50;99.90;;;;;;9972089;29;20243;-78
2023/08/16 13:24:42;;;;;;;5.20;2.50;;;;;;;;;;9950715;29;20369;-79
2023/08/16 13:30:17;;;;;;;7.85;2.00;;;31.00;99.90;;;;;;9962953;29;20273;-82
2023/08/16 13:35:59;;;;;;;4.88;2.13;;;;;;;;;;9986511;29;20401;-84
2023/08/16 13:41:24;;;;;;;7.85;2.55;;;30.30;1.00;;;;;;9972661;29;20233;-83
2023/08/16 13:46:45;;;;;;;8.00;2.55;;;30.30;1.00;;;;;;9949736;29;20637;-77
2023/08/16 13:52:07;;;;;;;7.35;2.50;;;30.10;1.00;;;;;;9933089;29;20243;-79
2023/08/16 13:57:28;;;;;;;9.32;2.40;;;29.80;1.00;;;;;;9974159;29;20196;-78
2023/08/16 14:02:50;;;;;;;5.97;2.45;;;29.60;1.00;;;;;;9989777;29;20212;-77
2023/08/16 14:08:12;;;;;;;7.22;2.80;;;29.50;1.00;;;;;;9984575;29;20578;-78
2023/08/16 14:13:34;;;;;;;3.08;2.03;;;29.20;99.90;;;;;;9985345;29;20227;-77
2023/08/16 14:18:56;;;;;;;3.15;2.58;;;29.00;99.90;;;;;;9962264;29;20265;-81
2023/08/16 14:24:18;;;;;;;2.70;1.60;;;28.80;99.90;;;;;;9972066;29;20215;-78
2023/08/16 14:29:39;;;;;;;2.55;1.90;;;28.50;99.90;;;;;;9998026;29;20236;-77
2023/08/16 14:35:00;;;;;;;9.10;2.38;;;28.50;99.90;;;;;;9976938;29;20204;-77
2023/08/16 14:40:21;;;;;;;4.70;2.00;;;28.40;99.90;;;;;;9967597;29;20243;-78
2023/08/16 14:45:49;;;;;;;5.65;2.30;;;28.20;99.90;;;;;;9980346;29;20561;-78
2023/08/16 14:51:10;;;;;;;5.57;2.40;;;28.10;1.00;;;;;;9974155;29;20227;-76
2023/08/16 14:56:32;;;;;;;3.75;2.67;;;28.10;1.00;;;;;;9972095;29;20222;-77
2023/08/16 15:01:53;;;;;;;3.28;2.10;;;;;;;;;;9973145;29;20711;-77
2023/08/16 15:07:16;;;;;;;3.58;1.95;;;;;;;;;;9970259;29;20542;-78
2023/08/16 15:12:39;;;;;;;9.90;2.92;;;27.30;1.00;;;;;;9968780;29;20204;-78
2023/08/16 15:18:01;;;;;;;10.25;2.90;;;27.30;1.00;;;;;;9949933;29;20523;-77
2023/08/16 15:23:24;;;;;;;6.57;2.40;;;27.10;1.00;;;;;;9965327;29;20209;-78
2023/08/16 15:28:45;;;;;;;3.35;2.22;;;27.10;1.00;;;;;;9963679;29;20240;-78
2023/08/16 15:34:07;;;;;;;3.55;2.58;;;26.90;1.00;;;;;;9964006;29;20564;-77
2023/08/16 15:39:28;;;;;;;4.57;2.33;;;26.70;1.00;;;;;;9918545;29;20395;-77
2023/08/16 15:44:49;;;;;;;3.20;2.35;;;26.40;1.00;;;;;;9960897;29;20260;-77
2023/08/16 15:50:11;;;;;;;3.80;2.72;;;26.00;1.00;;;;;;9966112;29;20232;-80
2023/08/16 15:55:32;;;;;;;3.33;2.10;;;25.90;1.00;;;;;;9964465;29;20394;-77
2023/08/16 16:00:58;;;;;;;5.03;2.70;;;;;;;;;;9965310;29;20201;-78
2023/08/16 16:06:20;;;;;;;3.35;2.22;;;25.20;1.00;;;;;;10003576;29;20228;-79
2023/08/16 16:11:41;;;;;;;3.58;2.22;;;25.00;1.00;;;;;;9965040;29;20200;-77
2023/08/16 16:17:23;;;;;;;2.42;1.83;;;24.80;1.00;;;;;;9957892;29;20364;-78
2023/08/16 16:22:45;;;;;;;4.72;2.17;;;24.80;1.00;;;;;;9928012;29;20208;-77
2023/08/16 16:28:06;;;;;;;3.05;1.90;;;24.70;1.00;;;;;;9955830;29;20316;-76
2023/08/16 16:33:27;;;;;;;3.75;2.10;;;24.70;1.00;;;;;;9962662;29;20201;-77
2023/08/16 16:38:48;;;;;;;3.28;2.17;;;24.40;1.00;;;;;;9964930;29;20207;-77
2023/08/16 16:44:10;;;;;;;7.60;2.30;;;;;;;;;;9964156;29;20237;-77
2023/08/16 16:49:31;;;;;;;2.70;1.90;;;24.20;1.00;;;;;;9963036;29;20274;-77
2023/08/16 16:54:53;;;;;;;4.55;2.08;;;24.20;99.90;;;;;;9964433;29;20296;-77
2023/08/16 17:00:14;;;;;;;2.72;2.00;;;24.30;95.80;;;;;;9971146;29;20202;-78
2023/08/16 17:05:36;;;;;;;3.97;2.03;;;24.20;50.90;;;;;;9966070;29;20318;-76
2023/08/16 17:10:57;;;;;;;5.43;2.20;;;24.20;99.90;;;;;;9969805;29;20515;-77
2023/08/16 17:16:20;;;;;;;3.75;2.30;;;24.10;99.90;;;;;;9956649;29;20521;-76
2023/08/16 17:21:44;;;;;;;4.00;2.38;;;24.00;74.70;;;;;;9971079;29;20205;-77
2023/08/16 17:27:05;;;;;;;4.38;2.22;;;24.10;1.00;;;;;;9970392;29;20228;-77
2023/08/16 17:32:26;;;;;;;3.65;2.63;;;24.10;1.00;;;;;;9969814;29;20223;-77
2023/08/16 17:37:47;;;;;;;7.45;3.10;;;23.90;1.00;;;;;;9969367;29;20400;-76
2023/08/16 17:43:08;;;;;;;7.43;2.30;;;23.70;1.00;;;;;;9969923;29;20256;-77
2023/08/16 17:48:30;;;;;;;4.57;2.25;;;23.80;1.00;;;;;;9967568;29;20393;-76
2023/08/16 17:53:51;;;;;;;4.15;2.33;;;23.80;1.00;;;;;;9968201;29;20211;-76
2023/08/16 17:59:12;;;;;;;7.32;3.10;;;23.80;1.00;;;;;;9968009;29;20396;-76
2023/08/16 18:04:34;;;;;;;4.07;2.63;;;23.60;1.00;;;;;;9932044;29;20204;-78
2023/08/16 18:09:56;;;;;;;4.78;2.70;;;23.50;1.00;;;;;;9967141;29;20229;-79
2023/08/16 18:15:17;;;;;;;6.07;3.60;;;23.50;1.00;;;;;;9956115;29;20214;-80
2023/08/16 18:20:38;;;;;;;5.55;2.47;;;23.50;1.00;;;;;;9968539;29;20505;-80
2023/08/16 18:25:59;;;;;;;5.05;3.10;;;23.40;1.00;;;;;;9966835;29;20208;-80
2023/08/16 18:31:21;;;;;;;6.10;3.60;;;23.10;1.00;;;;;;9968441;29;20204;-78
2023/08/16 18:36:42;;;;;;;6.53;4.13;;;23.00;1.00;;;;;;9968273;29;20204;-80
2023/08/16 18:42:03;;;;;;;6.82;4.30;;;23.00;1.00;;;;;;9965769;29;20241;-78
2023/08/16 18:47:25;;;;;;;7.38;3.83;;;22.90;1.00;;;;;;9967981;29;20404;-79
2023/08/16 18:52:47;;;;;;;6.15;3.83;;;22.90;1.00;;;;;;9938939;29;20200;-80
2023/08/16 18:58:08;;;;;;;6.13;3.20;;;22.80;1.00;;;;;;9966353;29;20287;-79
2023/08/16 19:03:30;;;;;;;5.32;3.10;;;22.80;1.00;;;;;;9998470;29;20200;-78
2023/08/16 19:08:51;;;;;;;14.60;5.82;;;22.70;1.00;;;;;;9972793;29;20246;-79
2023/08/16 19:14:12;;;;;;;11.15;6.82;;;22.80;1.00;;;;;;9965067;29;20287;-78
2023/08/16 19:19:34;;;;;;;7.05;4.35;;;22.70;1.00;;;;;;9966081;29;20263;-78
2023/08/16 19:24:55;;;;;;;13.30;3.05;;;22.70;1.00;;;;;;9965492;29;20205;-78
2023/08/16 19:30:16;;;;;;;4.30;2.63;;;22.70;1.00;;;;;;9964558;29;20263;-78
2023/08/16 19:35:37;;;;;;;2.90;1.95;;;22.80;1.00;;;;;;9964903;29;20208;-78
2023/08/16 19:40:59;;;;;;;3.17;2.17;;;22.70;1.00;;;;;;9965887;29;20236;-79
2023/08/16 19:46:24;;;;;;;4.15;2.75;;;22.60;1.00;;;;;;9971643;29;20219;-79
2023/08/16 19:51:45;;;;;;;4.13;2.35;;;22.50;1.00;;;;;;9964303;29;20519;-78
2023/08/16 19:57:07;;;;;;;6.43;2.63;;;22.50;1.00;;;;;;9963955;29;20215;-78
2023/08/16 20:02:28;;;;;;;3.25;1.98;;;22.40;1.00;;;;;;9987655;29;20226;-78
2023/08/16 20:07:49;;;;;;;3.88;2.08;;;22.40;1.00;;;;;;9993839;29;20539;-79
2023/08/16 20:13:10;;;;;;;2.90;2.00;;;22.30;1.00;;;;;;9964690;29;20535;-80
2023/08/16 20:18:32;;;;;;;4.45;1.98;;;22.40;1.00;;;;;;9977060;29;20197;-79
2023/08/16 20:23:53;;;;;;;1.90;1.60;;;22.30;1.00;;;;;;9950467;29;20209;-78
2023/08/16 20:29:15;;;;;;;2.95;1.85;;;;;;;;;;9926714;29;20615;-78
2023/08/16 20:34:59;;;;;;;2.40;1.50;;;22.20;1.00;;;;;;9927493;29;20607;-78
2023/08/16 20:40:20;;;;;;;5.50;2.03;;;22.20;1.00;;;;;;9947748;29;20406;-78
2023/08/16 20:45:41;;;;;;;5.07;1.98;;;22.20;1.00;;;;;;9971195;29;20308;-77
2023/08/16 20:51:02;;;;;;;3.45;2.00;;;22.10;1.00;;;;;;9970607;29;20236;-78
2023/08/16 20:56:24;;;;;;;3.97;2.08;;;22.10;1.00;;;;;;9982576;29;20208;-78
2023/08/16 21:01:45;;;;;;;6.50;2.30;;;21.80;1.00;;;;;;9987850;29;20507;-77
2023/08/16 21:07:07;;;;;;;8.13;2.20;;;;;;;;;;10004568;29;20216;-77
2023/08/16 21:12:28;;;;;;;7.93;2.67;;;21.80;1.00;;;;;;9945827;29;20213;-77
2023/08/16 21:17:50;;;;;;;3.78;2.25;;;21.70;1.00;;;;;;9933503;29;20459;-77
2023/08/16 21:23:11;;;;;;;6.25;2.25;;;21.70;1.00;;;;;;9944932;29;20240;-77
2023/08/16 21:28:33;;;;;;;3.38;2.17;;;21.60;29.40;;;;;;9969639;29;20587;-77
2023/08/16 21:33:55;;;;;;;4.03;2.30;;;21.60;78.00;;;;;;9970446;29;20257;-77
2023/08/16 21:39:16;;;;;;;4.68;2.30;;;21.60;97.30;;;;;;9969247;29;20220;-77
2023/08/16 21:44:38;;;;;;;4.75;2.10;;;21.70;99.90;;;;;;9969999;29;20298;-77
2023/08/16 21:49:59;;;;;;;4.90;2.47;;;21.70;99.90;;;;;;9969780;29;20243;-79
2023/08/16 21:55:19;;;;;;;9.18;2.92;;;21.60;99.90;;;;;;9967430;29;20208;-77
2023/08/16 22:00:41;;;;;;;5.20;3.10;;;21.50;99.90;;;;;;9975592;29;20199;-76
2023/08/16 22:06:03;;;;;;;7.15;2.88;;;21.50;99.90;;;;;;9938861;29;20492;-79
2023/08/16 22:11:24;;;;;;;4.93;2.72;;;21.50;99.90;;;;;;9946610;29;20237;-76
2023/08/16 22:16:46;;;;;;;5.85;3.05;;;21.60;1.00;;;;;;9946332;29;20239;-76
2023/08/16 22:22:08;;;;;;;7.05;2.85;;;;;;;;;;9930846;30;20205;-76
2023/08/16 22:27:29;;;;;;;8.63;3.15;;;21.60;1.00;;;;;;9942259;29;20224;-76
2023/08/16 22:32:52;;;;;;;6.68;2.83;;;21.60;1.00;;;;;;9940809;29;20212;-77
2023/08/16 22:38:15;;;;;;;5.53;2.40;;;21.40;1.00;;;;;;9931214;29;20215;-76
2023/08/16 22:43:36;;;;;;;3.47;2.50;;;21.40;1.00;;;;;;9942123;29;20252;-76
2023/08/16 22:48:57;;;;;;;7.60;2.90;;;21.40;1.00;;;;;;9994739;29;20289;-76
2023/08/16 22:54:19;;;;;;;4.45;1.92;;;;;;;;;;9967508;29;20232;-76
2023/08/16 22:59:40;;;;;;;5.40;2.28;;;;;;;;;;9980450;29;20264;-78
2023/08/16 23:05:02;;;;;;;3.97;1.98;;;21.00;1.00;;;;;;9958531;29;20215;-76
2023/08/16 23:10:23;;;;;;;3.92;2.40;;;20.90;99.90;;;;;;9967129;29;20450;-78
2023/08/16 23:15:44;;;;;;;6.15;2.78;;;20.90;99.90;;;;;;9966027;29;20525;-79
2023/08/16 23:21:06;;;;;;;3.67;1.80;;;20.90;99.90;;;;;;9966709;29;20196;-76
2023/08/16 23:26:27;;;;;;;3.80;1.98;;;20.80;1.00;;;;;;9964630;29;20314;-79
2023/08/16 23:31:48;;;;;;;2.92;1.60;;;20.80;99.90;;;;;;9928462;30;20870;-79
2023/08/16 23:37:09;;;;;;;4.60;1.80;;;20.80;99.90;;;;;;9929026;29;20201;-78
2023/08/16 23:42:30;;;;;;;3.58;1.60;;;20.80;99.90;;;;;;9940949;29;20543;-78
2023/08/16 23:47:51;;;;;;;2.47;1.30;;;20.80;1.00;;;;;;9964924;29;20303;-76
2023/08/16 23:53:13;;;;;;;4.82;1.95;;;20.70;1.00;;;;;;9965942;29;20203;-79
2023/08/16 23:58:34;;;;;;;3.25;1.50;;;20.60;1.00;;;;;;9964700;29;20530;-76
